createdAt,value
2023-05-19T00:01:17.761Z,99042.28
2023-05-19T00:03:57.832Z,99040.72
2023-05-19T00:06:26.942Z,99043.44
2023-05-19T00:09:00.365Z,99042.63
2023-05-19T00:11:28.910Z,99042.66
2023-05-19T00:13:57.658Z,99042.78
2023-05-19T00:16:25.643Z,99040.13
2023-05-19T00:18:53.360Z,99043.69
2023-05-19T00:21:20.927Z,99041.03
2023-05-19T00:23:47.486Z,99044.44
2023-05-19T00:26:14.095Z,99034.16
2023-05-19T00:28:40.743Z,99041.25
2023-05-19T00:31:07.364Z,99044.72
2023-05-19T00:33:34.253Z,99024.06
2023-05-19T00:36:03.461Z,99036.94
2023-05-19T00:38:34.881Z,99026.53
2023-05-19T00:41:02.528Z,99026.53
2023-05-19T00:43:32.630Z,99024.00
2023-05-19T00:45:59.256Z,99037.06
2023-05-19T00:48:26.575Z,99034.53
2023-05-19T00:50:55.213Z,99024.19
2023-05-19T00:53:23.286Z,99033.06
2023-05-19T00:55:50.611Z,99029.53
2023-05-19T00:58:18.543Z,99032.09
2023-05-19T01:00:45.793Z,99037.38
2023-05-19T01:03:12.632Z,99026.94
2023-05-19T01:05:41.753Z,99014.78
2023-05-19T01:08:09.142Z,99026.13
2023-05-19T01:10:36.014Z,99025.31
2023-05-19T01:13:07.074Z,99022.72
2023-05-19T01:15:42.177Z,99016.72
2023-05-19T01:18:14.296Z,99017.63
2023-05-19T01:20:55.312Z,99009.84
2023-05-19T01:23:36.757Z,99004.72
2023-05-19T01:26:16.193Z,99019.25
2023-05-19T01:28:54.957Z,99008.16
2023-05-19T01:31:24.037Z,99008.16
2023-05-19T01:33:53.752Z,99018.50
2023-05-19T01:36:22.329Z,99020.41
2023-05-19T01:38:52.094Z,99020.28
2023-05-19T01:41:22.505Z,99019.38
2023-05-19T01:43:50.761Z,99006.50
2023-05-19T01:46:17.817Z,99010.91
2023-05-19T01:48:45.743Z,99008.28
2023-05-19T01:51:12.362Z,99000.44
2023-05-19T01:53:39.058Z,99010.81
2023-05-19T01:56:06.624Z,99010.00
2023-05-19T01:58:47.526Z,99007.44
2023-05-19T02:01:30.815Z,99011.72
2023-05-19T02:04:09.687Z,99011.88
2023-05-19T02:07:09.673Z,99002.34
2023-05-19T02:09:54.815Z,99004.97
2023-05-19T02:12:29.120Z,99009.13
2023-05-19T02:15:06.888Z,99011.72
2023-05-19T02:17:36.696Z,99008.41
2023-05-19T02:20:05.341Z,99002.34
2023-05-19T02:22:31.974Z,98996.41
2023-05-19T02:24:58.838Z,98998.88
2023-05-19T02:27:26.378Z,98985.09
2023-05-19T02:29:53.421Z,98978.13
2023-05-19T02:32:20.965Z,98979.94
2023-05-19T02:34:47.750Z,98989.50
2023-05-19T02:37:17.815Z,98977.41
2023-05-19T02:39:45.075Z,98979.19
2023-05-19T02:42:12.555Z,98988.63
2023-05-19T02:44:39.261Z,98984.38
2023-05-19T02:47:05.952Z,98981.06
2023-05-19T02:49:36.215Z,98987.00
2023-05-19T02:52:03.904Z,98983.56
2023-05-19T02:54:31.669Z,98986.19
2023-05-19T02:57:01.281Z,98986.19
2023-05-19T02:59:28.014Z,98987.16
2023-05-19T03:01:56.782Z,98986.53
2023-05-19T03:04:23.448Z,98984.69
2023-05-19T03:06:50.334Z,98983.91
2023-05-19T03:09:17.036Z,98988.94
2023-05-19T03:11:43.679Z,98998.50
2023-05-19T03:14:11.650Z,98994.97
2023-05-19T03:16:42.289Z,98994.88
2023-05-19T03:19:09.881Z,98993.94
2023-05-19T03:21:39.449Z,98995.75
2023-05-19T03:24:06.768Z,98999.06
2023-05-19T03:26:33.496Z,98992.16
2023-05-19T03:29:00.178Z,99002.47
2023-05-19T03:31:26.995Z,99005.03
2023-05-19T03:33:53.767Z,99000.84
2023-05-19T03:36:22.147Z,99006.94
2023-05-19T03:38:48.846Z,99005.25
2023-05-19T03:41:15.565Z,99012.84
2023-05-19T03:43:42.200Z,99009.38
2023-05-19T03:46:08.835Z,99006.69
2023-05-19T03:48:38.351Z,99010.91
2023-05-19T03:51:05.054Z,99016.09
2023-05-19T03:53:31.686Z,99018.78
2023-05-19T03:55:59.544Z,99018.69
2023-05-19T03:58:26.843Z,99015.22
2023-05-19T04:00:53.531Z,99016.91
2023-05-19T04:03:20.307Z,99006.63
2023-05-19T04:05:47.065Z,99008.28
2023-05-19T04:08:13.738Z,99005.63
2023-05-19T04:10:40.353Z,99012.53
2023-05-19T04:13:09.961Z,99015.13
2023-05-19T04:15:36.659Z,99019.50
2023-05-19T04:18:03.430Z,99016.91
2023-05-19T04:20:30.223Z,99015.22
2023-05-19T04:22:56.947Z,99014.94
2023-05-19T04:25:25.376Z,99009.63
2023-05-19T04:27:53.074Z,99009.72
2023-05-19T04:30:22.597Z,99015.75
2023-05-19T04:32:53.543Z,99015.94
2023-05-19T04:35:20.788Z,99015.22
2023-05-19T04:37:47.395Z,99011.78
2023-05-19T04:40:17.465Z,99004.75
2023-05-19T04:42:46.147Z,99011.53
2023-05-19T04:45:14.130Z,99018.59
2023-05-19T04:47:41.976Z,99018.50
2023-05-19T04:50:10.440Z,99017.63
2023-05-19T04:52:37.765Z,99021.09
2023-05-19T04:55:04.788Z,99025.31
2023-05-19T04:57:31.439Z,99034.84
2023-05-19T05:00:00.301Z,99026.22
2023-05-19T05:02:29.932Z,99027.00
2023-05-19T05:04:57.855Z,99032.03
2023-05-19T05:07:24.692Z,99027.66
2023-05-19T05:09:51.537Z,99031.06
2023-05-19T05:12:19.190Z,99032.84
2023-05-19T05:14:46.125Z,99030.25
2023-05-19T05:17:13.797Z,99030.06
2023-05-19T05:19:41.098Z,99021.50
2023-05-19T05:22:10.743Z,99023.19
2023-05-19T05:24:39.745Z,99026.59
2023-05-19T05:27:08.280Z,99028.41
2023-05-19T05:29:38.098Z,99039.63
2023-05-19T05:32:10.439Z,99042.22
2023-05-19T05:34:38.181Z,99045.63
2023-05-19T05:37:04.944Z,99056.84
2023-05-19T05:39:32.007Z,99056.91
2023-05-19T05:41:58.721Z,99067.28
2023-05-19T05:44:25.430Z,99061.91
2023-05-19T05:46:55.260Z,99070.63
2023-05-19T05:49:23.235Z,99057.53
2023-05-19T05:52:01.821Z,99064.41
2023-05-19T05:54:35.306Z,99070.31
2023-05-19T05:57:02.645Z,99071.25
2023-05-19T05:59:29.307Z,99068.63
2023-05-19T06:01:56.014Z,99063.44
2023-05-19T06:04:22.717Z,99059.22
2023-05-19T06:06:49.387Z,99079.00
2023-05-19T06:09:16.399Z,99087.75
2023-05-19T06:11:43.042Z,99082.47
2023-05-19T06:14:10.369Z,99081.59
2023-05-19T06:16:37.062Z,99089.22
2023-05-19T06:19:03.806Z,99091.69
2023-05-19T06:21:30.944Z,99089.84
2023-05-19T06:23:57.642Z,99089.94
2023-05-19T06:26:24.402Z,99104.56
2023-05-19T06:28:51.408Z,99094.16
2023-05-19T06:31:18.216Z,99101.88
2023-05-19T06:33:44.821Z,99110.50
2023-05-19T06:36:14.080Z,99105.25
2023-05-19T06:38:40.749Z,99112.06
2023-05-19T06:41:07.554Z,99121.66
2023-05-19T06:43:34.173Z,99116.28
2023-05-19T06:46:00.802Z,99125.66
2023-05-19T06:48:27.494Z,99128.16
2023-05-19T06:50:54.277Z,99132.34
2023-05-19T06:53:21.473Z,99128.09
2023-05-19T06:55:59.245Z,99137.38
2023-05-19T06:58:27.273Z,99132.09
2023-05-19T07:00:53.948Z,99131.22
2023-05-19T07:03:20.663Z,99125.09
2023-05-19T07:05:47.629Z,99127.59
2023-05-19T07:08:14.253Z,99129.31
2023-05-19T07:10:43.825Z,99131.88
2023-05-19T07:13:10.485Z,99132.72
2023-05-19T07:15:37.124Z,99130.03
2023-05-19T07:18:03.964Z,99131.66
2023-05-19T07:20:30.992Z,99134.03
2023-05-19T07:22:57.956Z,99133.03
2023-05-19T07:25:26.166Z,99132.03
2023-05-19T07:27:53.016Z,99122.41
2023-05-19T07:30:19.635Z,99130.09
2023-05-19T07:32:46.295Z,99123.91
2023-05-19T07:35:13.062Z,99128.19
2023-05-19T07:37:39.823Z,99129.78
2023-05-19T07:40:08.033Z,99129.00
2023-05-19T07:42:34.802Z,99133.97
2023-05-19T07:45:03.232Z,99142.69
2023-05-19T07:47:30.735Z,99144.31
2023-05-19T07:49:57.448Z,99139.88
2023-05-19T07:52:24.075Z,99149.28
2023-05-19T07:54:50.697Z,99143.06
2023-05-19T07:57:19.032Z,99147.25
2023-05-19T07:59:45.714Z,99136.72
2023-05-19T08:02:15.574Z,99137.41
2023-05-19T08:04:42.788Z,99138.09
2023-05-19T08:07:09.435Z,99137.03
2023-05-19T08:09:39.148Z,99136.78
2023-05-19T08:12:06.289Z,99144.28
2023-05-19T08:14:37.574Z,99142.38
2023-05-19T08:17:04.255Z,99138.84
2023-05-19T08:19:30.935Z,99141.16
2023-05-19T08:21:58.297Z,99139.22
2023-05-19T08:24:24.980Z,99140.72
2023-05-19T08:26:51.704Z,99140.47
2023-05-19T08:29:18.360Z,99141.16
2023-05-19T08:31:45.004Z,99139.97
2023-05-19T08:34:11.874Z,99136.09
2023-05-19T08:36:39.057Z,99136.59
2023-05-19T08:39:06.043Z,99135.31
2023-05-19T08:41:33.087Z,99137.41
2023-05-19T08:44:02.091Z,99137.75
2023-05-19T08:46:29.371Z,99141.34
2023-05-19T08:49:02.149Z,99135.31
2023-05-19T08:51:50.972Z,99139.72
2023-05-19T08:54:18.695Z,99145.16
2023-05-19T08:56:45.746Z,99136.69
2023-05-19T08:59:14.612Z,99134.22
2023-05-19T09:01:48.601Z,99127.50
2023-05-19T09:04:17.074Z,99132.03
2023-05-19T09:06:45.265Z,99131.31
2023-05-19T09:09:13.616Z,99122.75
2023-05-19T09:11:40.214Z,99130.84
2023-05-19T09:14:09.447Z,99125.78
2023-05-19T09:16:36.384Z,99123.38
2023-05-19T09:19:03.303Z,99121.84
2023-05-19T09:21:33.662Z,99120.22
2023-05-19T09:24:08.404Z,99119.47
2023-05-19T09:26:42.737Z,99117.91
2023-05-19T09:29:13.940Z,99111.16
2023-05-19T09:31:50.635Z,99113.97
2023-05-19T09:34:18.462Z,99118.47
2023-05-19T09:36:46.933Z,99116.97
2023-05-19T09:39:14.932Z,99115.53
2023-05-19T09:41:42.299Z,99115.16
2023-05-19T09:44:23.340Z,99113.72
2023-05-19T09:46:50.944Z,99112.19
2023-05-19T09:49:25.397Z,99111.59
2023-05-19T09:51:58.864Z,99114.59
2023-05-19T09:54:27.570Z,99109.75
2023-05-19T09:57:01.013Z,99108.22
2023-05-19T09:59:32.034Z,99104.22
2023-05-19T10:02:01.040Z,99101.91
2023-05-19T10:04:29.780Z,99102.97
2023-05-19T10:07:01.184Z,99098.03
2023-05-19T10:09:29.732Z,99094.00
2023-05-19T10:12:01.858Z,99091.78
2023-05-19T10:14:29.762Z,99096.53
2023-05-19T10:16:59.855Z,99090.03
2023-05-19T10:19:28.296Z,99087.78
2023-05-19T10:21:56.314Z,99077.66
2023-05-19T10:24:26.600Z,99085.06
2023-05-19T10:27:03.607Z,99075.03
2023-05-19T10:29:35.657Z,99079.72
2023-05-19T10:32:10.614Z,99070.50
2023-05-19T10:35:02.992Z,99071.59
2023-05-19T10:37:53.775Z,99073.00
2023-05-19T10:41:10.426Z,99065.69
2023-05-19T10:44:10.266Z,99065.28
2023-05-19T10:46:37.865Z,99061.31
2023-05-19T10:49:04.562Z,99058.53
2023-05-19T10:51:32.325Z,99055.59
2023-05-19T10:54:10.448Z,99060.56
2023-05-19T10:56:42.439Z,99046.06
2023-05-19T10:59:35.656Z,99052.50
2023-05-19T11:02:08.919Z,99047.69
2023-05-19T11:04:53.641Z,99048.97
2023-05-19T11:07:22.457Z,99044.03
2023-05-19T11:09:53.279Z,99046.44
2023-05-19T11:12:25.044Z,99038.28
2023-05-19T11:14:55.952Z,99048.25
2023-05-19T11:17:27.483Z,99047.84
2023-05-19T11:19:55.934Z,99045.03
2023-05-19T11:22:27.249Z,99042.91
2023-05-19T11:24:59.909Z,99039.00
2023-05-19T11:27:31.108Z,99041.25
2023-05-19T11:29:59.636Z,99040.84
2023-05-19T11:32:31.175Z,99044.84
2023-05-19T11:34:58.259Z,99038.19
2023-05-19T11:37:25.372Z,99040.41
2023-05-19T11:39:53.065Z,99032.16
2023-05-19T11:42:23.024Z,99043.44
2023-05-19T11:44:55.872Z,99035.53
2023-05-19T11:47:22.570Z,99040.69
2023-05-19T11:49:57.758Z,99037.84
2023-05-19T11:52:26.005Z,99041.09
2023-05-19T11:54:52.716Z,99034.66
2023-05-19T11:57:22.646Z,99043.41
2023-05-19T11:59:53.337Z,99038.03
2023-05-19T12:02:27.702Z,99048.47
2023-05-19T12:04:55.105Z,99035.91
2023-05-19T12:07:26.065Z,99033.16
2023-05-19T12:09:53.420Z,99036.66
2023-05-19T12:12:21.359Z,99039.06
2023-05-19T12:14:50.176Z,99038.22
2023-05-19T12:17:21.508Z,99037.28
2023-05-19T12:19:49.254Z,99035.28
2023-05-19T12:22:17.313Z,99036.09
2023-05-19T12:24:45.209Z,99035.03
2023-05-19T12:27:13.737Z,99035.91
2023-05-19T12:29:40.680Z,99028.81
2023-05-19T12:32:08.321Z,99040.94
2023-05-19T12:34:38.994Z,99023.25
2023-05-19T12:37:06.470Z,99016.88
2023-05-19T12:39:34.013Z,99020.38
2023-05-19T12:42:07.939Z,99013.28
2023-05-19T12:44:54.831Z,99019.53
2023-05-19T12:47:22.371Z,99014.88
2023-05-19T12:49:55.972Z,99013.00
2023-05-19T12:52:23.702Z,99012.91
2023-05-19T12:54:52.518Z,99012.03
2023-05-19T12:57:21.120Z,99006.97
2023-05-19T12:59:49.393Z,99012.03
2023-05-19T13:02:16.576Z,99006.53
2023-05-19T13:04:43.339Z,99013.53
2023-05-19T13:07:09.968Z,99006.31
2023-05-19T13:09:36.650Z,99010.66
2023-05-19T13:12:04.788Z,99005.38
2023-05-19T13:14:31.450Z,99006.13
2023-05-19T13:16:58.080Z,99000.84
2023-05-19T13:19:26.026Z,99005.16
2023-05-19T13:21:53.100Z,98998.91
2023-05-19T13:24:22.007Z,99001.56
2023-05-19T13:26:48.927Z,98995.56
2023-05-19T13:29:15.609Z,98993.75
2023-05-19T13:31:42.414Z,98987.78
2023-05-19T13:34:09.209Z,98989.56
2023-05-19T13:36:36.641Z,98987.88
2023-05-19T13:39:03.604Z,98985.25
2023-05-19T13:41:30.346Z,98984.41
2023-05-19T13:43:59.235Z,98979.75
2023-05-19T13:46:36.723Z,98976.28
2023-05-19T13:49:13.063Z,98966.69
2023-05-19T13:51:45.026Z,98972.78
2023-05-19T13:54:11.851Z,98958.69
2023-05-19T13:56:38.771Z,98960.34
2023-05-19T13:59:05.402Z,98955.94
2023-05-19T14:01:35.742Z,98961.00
2023-05-19T14:04:02.791Z,98952.59
2023-05-19T14:06:29.622Z,98956.13
2023-05-19T14:08:59.199Z,98957.19
2023-05-19T14:11:26.330Z,98958.78
2023-05-19T14:13:53.271Z,98950.38
2023-05-19T14:16:23.219Z,98950.50
2023-05-19T14:18:50.014Z,98946.31
2023-05-19T14:21:16.669Z,98946.75
2023-05-19T14:23:48.627Z,98946.84
2023-05-19T14:26:16.065Z,98935.28
2023-05-19T14:28:42.774Z,98948.91
2023-05-19T14:31:12.877Z,98941.84
2023-05-19T14:33:40.810Z,98944.69
2023-05-19T14:36:08.474Z,98941.34
2023-05-19T14:38:35.429Z,98945.22
2023-05-19T14:41:02.367Z,98940.81
2023-05-19T14:43:29.115Z,98942.47
2023-05-19T14:45:56.849Z,98942.38
2023-05-19T14:48:23.546Z,98939.63
2023-05-19T14:50:50.370Z,98935.22
2023-05-19T14:53:17.084Z,98950.78
2023-05-19T14:55:46.494Z,98945.53
2023-05-19T14:58:27.686Z,98944.81
2023-05-19T15:00:58.072Z,98941.44
2023-05-19T15:03:25.072Z,98945.97
2023-05-19T15:05:51.871Z,98939.97
2023-05-19T15:08:18.582Z,98935.03
2023-05-19T15:10:49.364Z,98938.41
2023-05-19T15:13:17.156Z,98933.03
2023-05-19T15:15:43.797Z,98939.16
2023-05-19T15:18:11.510Z,98935.78
2023-05-19T15:20:38.138Z,98930.81
2023-05-19T15:23:04.796Z,98924.84
2023-05-19T15:25:31.528Z,98931.56
2023-05-19T15:27:58.194Z,98933.38
2023-05-19T15:30:25.944Z,98927.34
2023-05-19T15:32:52.565Z,98934.50
2023-05-19T15:35:19.264Z,98925.78
2023-05-19T15:37:45.912Z,98925.97
2023-05-19T15:40:12.936Z,98921.66
2023-05-19T15:42:39.554Z,98920.28
2023-05-19T15:45:08.208Z,98921.25
2023-05-19T15:47:34.946Z,98914.41
2023-05-19T15:50:01.612Z,98919.66
2023-05-19T15:52:29.275Z,98915.56
2023-05-19T15:54:59.059Z,98918.91
2023-05-19T15:57:25.963Z,98919.13
2023-05-19T15:59:52.642Z,98914.09
2023-05-19T16:02:19.658Z,98914.31
2023-05-19T16:04:46.446Z,98913.56
2023-05-19T16:07:13.094Z,98917.88
2023-05-19T16:09:39.741Z,98913.56
2023-05-19T16:12:06.793Z,98914.41
2023-05-19T16:14:36.512Z,98906.63
2023-05-19T16:17:07.598Z,98911.91
2023-05-19T16:19:34.369Z,98906.63
2023-05-19T16:22:01.098Z,98914.75
2023-05-19T16:24:28.459Z,98916.63
2023-05-19T16:26:55.593Z,98927.16
2023-05-19T16:29:22.239Z,98921.25
2023-05-19T16:31:48.849Z,98910.13
2023-05-19T16:34:15.653Z,98914.84
2023-05-19T16:36:42.342Z,98920.44
2023-05-19T16:39:09.037Z,98916.19
2023-05-19T16:41:35.871Z,98911.16
2023-05-19T16:44:02.583Z,98917.47
2023-05-19T16:46:32.437Z,98918.63
2023-05-19T16:48:59.069Z,98920.63
2023-05-19T16:51:25.825Z,98909.56
2023-05-19T16:53:52.466Z,98906.19
2023-05-19T16:56:19.248Z,98909.03
2023-05-19T16:58:46.465Z,98912.84
2023-05-19T17:01:13.145Z,98904.50
2023-05-19T17:03:39.845Z,98908.03
2023-05-19T17:06:06.608Z,98910.78
2023-05-19T17:08:33.223Z,98913.72
2023-05-19T17:10:59.903Z,98908.56
2023-05-19T17:13:28.354Z,98908.78
2023-05-19T17:15:55.019Z,98912.34
2023-05-19T17:18:21.706Z,98912.53
2023-05-19T17:20:48.439Z,98917.03
2023-05-19T17:23:15.098Z,98915.38
2023-05-19T17:25:41.959Z,98914.72
2023-05-19T17:28:08.741Z,98921.22
2023-05-19T17:30:35.802Z,98926.69
2023-05-19T17:33:02.537Z,98917.13
2023-05-19T17:35:29.254Z,98918.47
2023-05-19T17:37:56.034Z,98919.41
2023-05-19T17:40:22.651Z,98925.78
2023-05-19T17:42:49.337Z,98913.72
2023-05-19T17:45:16.142Z,98918.31
2023-05-19T17:47:42.871Z,98917.69
2023-05-19T17:50:09.937Z,98917.03
2023-05-19T17:52:38.411Z,98915.72
2023-05-19T17:55:05.886Z,98919.41
2023-05-19T17:57:34.133Z,98918.97
2023-05-19T18:00:01.366Z,98917.47
2023-05-19T18:02:28.180Z,98928.34
2023-05-19T18:04:55.172Z,98925.97
2023-05-19T18:07:23.453Z,98928.13
2023-05-19T18:09:51.860Z,98924.13
2023-05-19T18:12:18.526Z,98932.38
2023-05-19T18:14:48.226Z,98934.34
2023-05-19T18:17:14.851Z,98934.72
2023-05-19T18:19:44.445Z,98937.63
2023-05-19T18:22:12.986Z,98934.53
2023-05-19T18:24:39.650Z,98935.66
2023-05-19T18:27:06.301Z,98942.94
2023-05-19T18:29:33.996Z,98946.06
2023-05-19T18:32:01.394Z,98945.75
2023-05-19T18:34:30.183Z,98953.25
2023-05-19T18:36:56.785Z,98952.81
2023-05-19T18:39:23.495Z,98954.13
2023-05-19T18:41:50.845Z,98954.44
2023-05-19T18:44:17.546Z,98955.66
2023-05-19T18:46:47.256Z,98956.09
2023-05-19T18:49:13.968Z,98955.03
2023-05-19T18:51:42.087Z,98957.91
2023-05-19T18:54:08.816Z,98953.78
2023-05-19T18:56:35.712Z,98952.44
2023-05-19T18:59:02.450Z,98958.78
2023-05-19T19:01:29.192Z,98959.03
2023-05-19T19:03:55.935Z,98963.53
2023-05-19T19:06:23.442Z,98968.16
2023-05-19T19:08:50.323Z,98977.97
2023-05-19T19:11:17.015Z,98972.97
2023-05-19T19:13:43.856Z,98972.97
2023-05-19T19:16:10.950Z,98979.56
2023-05-19T19:18:37.698Z,98977.13
2023-05-19T19:21:06.048Z,98976.53
2023-05-19T19:23:33.220Z,98979.22
2023-05-19T19:26:00.296Z,98975.97
2023-05-19T19:28:27.041Z,98983.22
2023-05-19T19:30:53.714Z,98981.63
2023-05-19T19:33:20.574Z,98979.00
2023-05-19T19:35:47.240Z,98993.88
2023-05-19T19:38:14.161Z,98994.00
2023-05-19T19:40:40.878Z,98991.47
2023-05-19T19:43:07.558Z,98997.66
2023-05-19T19:45:34.901Z,98990.13
2023-05-19T19:48:01.934Z,98988.69
2023-05-19T19:50:28.568Z,98992.31
2023-05-19T19:52:55.170Z,98996.84
2023-05-19T19:55:21.914Z,98997.84
2023-05-19T19:57:49.572Z,98996.16
2023-05-19T20:00:16.666Z,98997.31
2023-05-19T20:03:02.859Z,99006.19
2023-05-19T20:05:30.043Z,99017.03
2023-05-19T20:07:56.736Z,99010.41
2023-05-19T20:10:23.378Z,99012.50
2023-05-19T20:12:50.700Z,99013.44
2023-05-19T20:15:17.585Z,99019.72
2023-05-19T20:17:44.334Z,99007.66
2023-05-19T20:20:12.322Z,99018.34
2023-05-19T20:22:41.158Z,99013.13
2023-05-19T20:25:08.189Z,99013.22
2023-05-19T20:27:37.715Z,99014.50
2023-05-19T20:30:04.919Z,99007.75
2023-05-19T20:32:31.664Z,99006.06
2023-05-19T20:34:58.501Z,99015.13
2023-05-19T20:37:25.135Z,99008.31
2023-05-19T20:39:51.881Z,98998.88
2023-05-19T20:42:18.482Z,99004.16
2023-05-19T20:44:45.144Z,99002.47
2023-05-19T20:47:11.859Z,99011.38
2023-05-19T20:49:38.567Z,99001.00
2023-05-19T20:52:05.276Z,99001.09
2023-05-19T20:54:31.928Z,99001.25
2023-05-19T20:56:58.557Z,99000.38
2023-05-19T20:59:25.536Z,98997.84
2023-05-19T21:01:52.120Z,98996.38
2023-05-19T21:04:18.970Z,98992.28
2023-05-19T21:06:45.887Z,98988.84
2023-05-19T21:09:12.588Z,98986.38
2023-05-19T21:11:39.191Z,98990.97
2023-05-19T21:14:08.095Z,98987.53
2023-05-19T21:16:38.838Z,98994.72
2023-05-19T21:19:06.938Z,98993.16
2023-05-19T21:21:34.710Z,98993.16
2023-05-19T21:24:01.977Z,98993.47
2023-05-19T21:26:28.585Z,98991.00
2023-05-19T21:28:55.257Z,98992.69
2023-05-19T21:31:21.938Z,98985.00
2023-05-19T21:33:48.721Z,98992.19
2023-05-19T21:36:16.546Z,98995.25
2023-05-19T21:38:43.176Z,99001.38
2023-05-19T21:41:09.864Z,98996.44
2023-05-19T21:43:36.498Z,98995.03
2023-05-19T21:46:03.262Z,98986.28
2023-05-19T21:48:29.876Z,98989.94
2023-05-19T21:50:57.281Z,98995.31
2023-05-19T21:53:24.760Z,98981.50
2023-05-19T21:55:51.629Z,98986.63
2023-05-19T21:58:18.569Z,98985.03
2023-05-19T22:00:52.686Z,98981.56
2023-05-19T22:03:19.742Z,98985.91
2023-05-19T22:05:50.843Z,98986.06
2023-05-19T22:08:18.509Z,98987.75
2023-05-19T22:10:45.420Z,98984.38
2023-05-19T22:13:12.707Z,98978.25
2023-05-19T22:15:39.623Z,98976.41
2023-05-19T22:18:07.016Z,98971.47
2023-05-19T22:20:34.283Z,98971.56
2023-05-19T22:23:04.077Z,98960.13
2023-05-19T22:25:31.236Z,98968.81
2023-05-19T22:27:57.896Z,98968.97
2023-05-19T22:30:24.718Z,98979.34
2023-05-19T22:32:51.395Z,98973.41
2023-05-19T22:35:18.916Z,98976.06
2023-05-19T22:37:45.504Z,98977.06
2023-05-19T22:40:12.342Z,98978.13
2023-05-19T22:42:39.005Z,98970.84
2023-05-19T22:45:06.410Z,98969.72
2023-05-19T22:47:33.084Z,98972.53
2023-05-19T22:49:59.740Z,98967.31
2023-05-19T22:52:26.395Z,98971.50
2023-05-19T22:54:53.099Z,98972.41
2023-05-19T22:57:19.722Z,98969.72
2023-05-19T22:59:48.226Z,98965.34
2023-05-19T23:02:14.862Z,98963.78
2023-05-19T23:04:41.553Z,98955.22
2023-05-19T23:07:08.212Z,98956.09
2023-05-19T23:09:34.933Z,98959.84
2023-05-19T23:12:01.585Z,98958.84
2023-05-19T23:14:28.491Z,98966.03
2023-05-19T23:16:55.208Z,98961.59
2023-05-19T23:19:22.335Z,98959.13
2023-05-19T23:21:49.330Z,98953.22
2023-05-19T23:24:16.305Z,98956.84
2023-05-19T23:26:45.965Z,98954.31
2023-05-19T23:29:13.666Z,98950.09
2023-05-19T23:31:41.147Z,98960.69
2023-05-19T23:34:08.928Z,98956.53
2023-05-19T23:36:36.517Z,98949.69
2023-05-19T23:39:03.410Z,98953.00
2023-05-19T23:41:35.984Z,98940.06
2023-05-19T23:44:02.645Z,98933.09
2023-05-19T23:46:29.496Z,98949.63
2023-05-19T23:48:56.284Z,98930.75
2023-05-19T23:51:22.955Z,98938.75
2023-05-19T23:53:49.624Z,98937.78
2023-05-19T23:56:18.941Z,98956.09
2023-05-19T23:58:45.766Z,98945.75
